Wheatland, North Dakota
Current Conditions -  °F | °C
As of 9:53 PM on Sunday 23 Nov 2014 (Local Time) from KFAR Reporting Station
Light Snow Light Snow  
Wind Chill:   Ceiling: 2600
Heat Index: 19°   Visibility: 3mi
Dew Point: 15°   Wind: 24mph
Humidity: 85%   Direction: 330°NNW
Pressure: 29.58"   Gusts: 29mph
Location:  46.91°N, 97.34°W
Report Text: KFAR 240353Z 33021G25KT 3SM -SN BR FEW011 BKN026 OVC048 M07/M09 A2958 RMK AO2 PK WND 32027/0334 SNB04 SLP028 P0000 I1000 T10721094
Loading
Personal Weather Stations






























Interactive Weather Map New forecast layout! Learn more

10-Day Weather Forecast

Advertisements
Track Severe Weather on mobile